Unionville, Connecticut
Current Conditions -  °F | °C
As of 10:53 PM on Saturday 25 Oct 2014 (Local Time) from KHFD Reporting Station
Overcast Overcast  
Wind Chill: 59°   Ceiling: 7500
Heat Index: 59°   Visibility: 10mi
Dew Point: 46°   Wind: 12mph
Humidity: 62%   Direction: 210°SSW
Pressure: 29.55"   Gusts: 18mph
Location:  41.76°N, 72.89°W
Report Text: KHFD 260253Z AUTO 21010G16KT 10SM OVC075 15/08 A2955 RMK AO2 SLP006 T01500078 56016
Loading
Personal Weather Stations






























Interactive Weather Map
Tropical Storm Tracking
New forecast layout! Learn more

10-Day Weather Forecast

Advertisements
Track Severe Weather on mobile